Time;durP1;ratioP1;P1;durP2;ratioP2;P2;SDS_P1;SDS_P2;PMS_P1;PMS_P2;Temp;Humidity;BMP_temperature;BMP_pressure;BME280_temperature;BME280_humidity;BME280_pressure;Samples;Min_cycle;Max_cycle;Signal;HPM_P1;HPM_P2
2021/06/22 00:01:20;;;;;;;15.52;6.80;;;;;;;19.53;100.00;97047.69;5033714;28;20109;-75
2021/06/22 00:03:45;;;;;;;11.20;6.28;;;;;;;19.58;100.00;97071.59;5049155;28;20025;-75
2021/06/22 00:06:11;;;;;;;13.02;6.65;;;;;;;19.64;100.00;97098.94;5031971;28;20578;-75
2021/06/22 00:08:36;;;;;;;10.75;7.10;;;;;;;19.59;100.00;97097.72;5048895;28;20029;-75
2021/06/22 00:11:02;;;;;;;12.52;7.47;;;;;;;19.60;100.00;97099.41;5048677;28;20022;-75
2021/06/22 00:13:27;;;;;;;19.67;6.80;;;;;;;19.72;100.00;97101.69;5032062;28;20508;-76
2021/06/22 00:15:53;;;;;;;10.02;6.95;;;;;;;19.92;100.00;97124.88;5033076;28;20104;-76
2021/06/22 00:18:18;;;;;;;16.75;6.55;;;;;;;19.82;100.00;97104.28;5031999;28;20055;-76
2021/06/22 00:20:44;;;;;;;9.95;6.70;;;;;;;19.85;100.00;97084.94;5033501;28;20400;-75
2021/06/22 00:23:09;;;;;;;10.05;6.43;;;;;;;19.81;100.00;97070.84;5031797;28;20030;-76
2021/06/22 00:25:35;;;;;;;10.60;6.57;;;;;;;19.84;100.00;97084.09;5033124;28;20021;-75
2021/06/22 00:28:00;;;;;;;10.00;6.70;;;;;;;19.64;100.00;97046.53;5031511;28;20400;-75
2021/06/22 00:30:26;;;;;;;14.43;6.80;;;;;;;19.58;100.00;97049.91;5033070;28;20044;-75
2021/06/22 00:32:53;;;;;;;13.50;7.13;;;;;;;19.60;100.00;97054.13;5033197;28;20029;-75
2021/06/22 00:35:19;;;;;;;12.30;6.95;;;;;;;19.55;100.00;97042.09;5032898;28;20056;-75
2021/06/22 00:37:45;;;;;;;11.77;6.50;;;;;;;19.56;100.00;97063.63;5048458;28;20053;-75
2021/06/22 00:40:12;;;;;;;8.88;6.43;;;;;;;19.60;100.00;97069.56;5031427;28;20081;-75
2021/06/22 00:42:39;;;;;;;13.05;6.93;;;;;;;19.57;100.00;97072.59;5048104;28;20027;-75
2021/06/22 00:45:05;;;;;;;9.40;7.05;;;;;;;19.47;100.00;97062.72;5048012;28;20032;-75
2021/06/22 00:47:31;;;;;;;17.92;7.22;;;;;;;19.42;100.00;97067.78;5031505;28;20029;-75
2021/06/22 00:49:57;;;;;;;11.75;6.65;;;;;;;19.53;100.00;97069.38;5048002;28;20025;-75
2021/06/22 00:52:24;;;;;;;15.20;7.90;;;;;;;19.59;100.00;97065.16;5047821;28;20030;-74
2021/06/22 00:54:50;;;;;;;17.90;7.63;;;;;;;19.59;100.00;97074.16;5032728;28;20032;-75
2021/06/22 00:57:18;;;;;;;15.48;7.88;;;;;;;19.69;100.00;97080.28;5031064;28;20033;-76
2021/06/22 00:59:43;;;;;;;14.00;7.25;;;;;;;19.69;100.00;97069.44;5047940;28;20088;-75
2021/06/22 01:02:09;;;;;;;10.93;7.47;;;;;;;19.70;100.00;97079.28;5032274;28;20444;-75
2021/06/22 01:04:36;;;;;;;19.05;7.40;;;;;;;19.67;100.00;97074.19;5047783;28;20551;-75
2021/06/22 01:07:03;;;;;;;17.58;8.60;;;;;;;19.77;100.00;97088.50;5047513;28;20564;-75
2021/06/22 01:09:29;;;;;;;14.50;7.72;;;;;;;19.76;100.00;97094.94;5032353;28;20029;-76
2021/06/22 01:11:59;;;;;;;13.18;7.95;;;;;;;19.79;100.00;97091.88;5031266;28;20061;-75
2021/06/22 01:14:25;;;;;;;21.20;8.20;;;;;;;19.82;100.00;97079.84;5047974;28;20018;-75
2021/06/22 01:16:52;;;;;;;12.05;8.32;;;;;;;19.77;100.00;97074.06;5047485;28;20017;-76
2021/06/22 01:19:18;;;;;;;15.43;8.05;;;;;;;19.67;100.00;97060.63;5047866;28;20033;-75
2021/06/22 01:21:43;;;;;;;17.60;8.18;;;;;;;19.73;100.00;97078.97;5047773;28;20027;-74
2021/06/22 01:24:10;;;;;;;12.60;7.90;;;;;;;19.67;100.00;97076.91;5047664;28;20477;-76
2021/06/22 01:26:38;;;;;;;14.95;7.50;;;;;;;19.54;100.00;97062.06;5032354;28;20546;-76
2021/06/22 01:29:08;;;;;;;15.43;8.27;;;;;;;19.56;100.00;97066.34;5047631;28;20036;-76
2021/06/22 01:31:34;;;;;;;17.17;8.13;;;;;;;19.63;100.00;97075.53;5024615;28;20045;-76
2021/06/22 01:34:00;;;;;;;15.27;8.38;;;;;;;19.45;100.00;97044.91;5031211;28;20538;-76
2021/06/22 01:36:28;;;;;;;14.25;7.70;;;;;;;19.51;100.00;97057.81;5031927;28;20120;-76
2021/06/22 01:38:53;;;;;;;21.90;7.63;;;;;;;19.57;100.00;97068.03;5030957;28;20076;-76
2021/06/22 01:41:19;;;;;;;15.85;7.55;;;;;;;19.45;100.00;97061.19;5030937;28;20509;-76
2021/06/22 01:43:44;;;;;;;15.48;7.28;;;;;;;19.27;100.00;97039.53;5047525;28;20063;-76
2021/06/22 01:46:10;;;;;;;13.63;7.18;;;;;;;19.42;100.00;97045.25;5047369;28;20187;-77
2021/06/22 01:48:35;;;;;;;11.65;8.25;;;;;;;19.52;100.00;97061.41;5047424;28;20454;-76
2021/06/22 01:51:01;;;;;;;10.57;8.02;;;;;;;19.53;100.00;97063.09;5032157;28;20031;-76
2021/06/22 01:53:26;;;;;;;14.38;7.85;;;;;;;19.33;100.00;97052.47;5047363;28;20072;-76
2021/06/22 01:55:52;;;;;;;14.52;8.00;;;;;;;19.39;100.00;97068.13;5032059;28;20025;-76
2021/06/22 01:58:20;;;;;;;13.45;8.30;;;;;;;19.38;100.00;97066.38;5031701;28;20025;-76
2021/06/22 02:00:48;;;;;;;14.65;8.43;;;;;;;19.37;100.00;97066.56;5030532;28;20033;-76
2021/06/22 02:03:20;;;;;;;19.10;8.20;;;;;;;19.25;100.00;97054.28;5031733;28;20025;-76
2021/06/22 02:05:47;;;;;;;15.00;9.27;;;;;;;19.20;100.00;97049.31;5030467;28;20116;-76
2021/06/22 02:08:13;;;;;;;10.80;8.27;;;;;;;19.20;100.00;97034.91;5046545;28;20037;-76
2021/06/22 02:10:39;;;;;;;13.93;8.13;;;;;;;19.19;100.00;97049.50;5046942;28;20026;-76
2021/06/22 02:13:05;;;;;;;16.05;8.73;;;;;;;19.13;100.00;97047.44;5046946;28;20500;-75
2021/06/22 02:15:31;;;;;;;17.95;8.68;;;;;;;19.10;100.00;97045.03;5030219;28;20032;-76
2021/06/22 02:17:57;;;;;;;15.68;8.20;;;;;;;19.16;100.00;97047.09;5030460;28;20027;-76
2021/06/22 02:20:22;;;;;;;19.25;9.70;;;;;;;19.07;100.00;97029.09;5030081;28;20102;-76
2021/06/22 02:22:48;;;;;;;15.05;8.98;;;;;;;19.14;100.00;97046.41;5046911;28;20025;-76
2021/06/22 02:25:14;;;;;;;13.52;8.73;;;;;;;19.12;100.00;97046.56;5046862;28;20072;-76
2021/06/22 02:27:40;;;;;;;14.70;9.10;;;;;;;19.08;100.00;97058.75;5046958;28;20440;-75
2021/06/22 02:30:12;;;;;;;17.60;9.90;;;;;;;18.89;100.00;97037.25;5034187;28;20084;-76
2021/06/22 02:32:38;;;;;;;15.53;9.83;;;;;;;18.85;100.00;97044.03;5050991;28;20026;-76
2021/06/22 02:35:06;;;;;;;19.17;11.38;;;;;;;18.93;100.00;97053.06;5050867;28;20439;-76
2021/06/22 02:37:32;;;;;;;21.92;10.35;;;;;;;18.90;100.00;97056.09;5035448;28;20064;-75
2021/06/22 02:39:58;;;;;;;18.42;8.77;;;;;;;18.75;100.00;97046.81;5050961;28;20077;-76
2021/06/22 02:42:23;;;;;;;13.35;7.68;;;;;;;18.80;100.00;97049.03;5035355;28;20134;-76
2021/06/22 02:44:49;;;;;;;15.20;8.70;;;;;;;18.78;100.00;97061.91;5034131;28;20086;-76
2021/06/22 02:47:15;;;;;;;17.40;8.25;;;;;;;18.77;100.00;97055.63;5050526;28;20079;-76
2021/06/22 02:49:41;;;;;;;15.93;8.15;;;;;;;18.78;100.00;97051.06;5034946;28;20116;-76
2021/06/22 02:52:08;;;;;;;14.52;8.35;;;;;;;18.69;100.00;97058.28;5033832;28;20132;-75
2021/06/22 02:54:37;;;;;;;14.13;7.88;;;;;;;18.73;100.00;97066.97;5033522;28;20037;-76
2021/06/22 02:57:07;;;;;;;18.73;8.60;;;;;;;18.65;100.00;97050.63;5049934;28;20378;-76
2021/06/22 02:59:33;;;;;;;14.45;7.97;;;;;;;18.73;100.00;97065.13;5050258;28;20033;-76
2021/06/22 03:01:59;;;;;;;15.40;8.18;;;;;;;18.69;100.00;97065.56;5033620;28;20029;-75
2021/06/22 03:04:24;;;;;;;17.90;8.00;;;;;;;18.53;100.00;97044.59;5033284;28;20041;-76
2021/06/22 03:06:50;;;;;;;15.98;8.48;;;;;;;18.61;100.00;97050.09;5050112;28;20544;-76
2021/06/22 03:09:15;;;;;;;15.15;8.63;;;;;;;18.63;100.00;97045.38;5034687;28;20026;-76
2021/06/22 03:11:41;;;;;;;17.10;8.48;;;;;;;18.66;100.00;97052.34;5034448;28;20385;-76
2021/06/22 03:14:06;;;;;;;14.95;8.85;;;;;;;18.61;100.00;97044.66;5050020;28;20053;-75
2021/06/22 03:16:32;;;;;;;17.52;7.60;;;;;;;18.71;100.00;97064.41;5034512;28;20436;-76
2021/06/22 03:18:57;;;;;;;15.57;7.70;;;;;;;18.64;100.00;97057.91;5049997;28;20087;-75
2021/06/22 03:21:23;;;;;;;13.75;7.78;;;;;;;18.64;100.00;97062.50;5034410;28;20079;-76
2021/06/22 03:23:49;;;;;;;11.50;7.50;;;;;;;18.74;100.00;97083.06;5049924;28;20029;-76
2021/06/22 03:26:15;;;;;;;12.13;7.47;;;;;;;18.68;100.00;97067.41;5033011;28;20039;-76
2021/06/22 03:28:41;;;;;;;9.60;7.30;;;;;;;18.78;100.00;97078.19;5034223;28;20473;-76
2021/06/22 03:31:06;;;;;;;11.25;8.23;;;;;;;18.78;100.00;97064.63;5049687;28;20083;-76
2021/06/22 03:33:32;;;;;;;12.25;7.90;;;;;;;18.73;100.00;97048.00;5049323;28;20120;-76
2021/06/22 03:35:58;;;;;;;14.45;7.70;;;;;;;18.90;100.00;97061.50;5049659;28;20033;-76
2021/06/22 03:38:23;;;;;;;13.82;7.70;;;;;;;19.03;100.00;97076.50;5034164;28;20037;-76
2021/06/22 03:40:49;;;;;;;10.93;8.18;;;;;;;19.15;100.00;97083.34;5032397;28;20674;-76
2021/06/22 03:43:14;;;;;;;12.88;7.80;;;;;;;19.25;100.00;97076.84;5032903;28;20037;-76
2021/06/22 03:45:40;;;;;;;14.43;7.75;;;;;;;19.29;100.00;97067.34;5032505;28;20417;-76
2021/06/22 03:48:07;;;;;;;13.82;8.07;;;;;;;19.41;100.00;97089.69;5033872;28;20033;-76
2021/06/22 03:50:33;;;;;;;17.75;7.82;;;;;;;19.41;100.00;97073.41;5032355;28;20033;-76
2021/06/22 03:52:58;;;;;;;12.60;8.02;;;;;;;19.57;100.00;97086.16;5032483;28;20033;-76
2021/06/22 03:55:28;;;;;;;17.35;8.38;;;;;;;19.67;100.00;97090.47;5049220;28;20052;-76
2021/06/22 03:57:58;;;;;;;13.43;7.63;;;;;;;19.71;100.00;97075.56;5048773;28;20017;-76
2021/06/22 04:00:24;;;;;;;18.02;8.13;;;;;;;19.86;100.00;97073.94;5032434;28;20114;-76
2021/06/22 04:02:50;;;;;;;16.98;8.48;;;;;;;19.89;100.00;97081.75;5032242;28;20079;-76
2021/06/22 04:05:16;;;;;;;14.63;8.35;;;;;;;20.09;100.00;97081.50;5049045;28;20032;-76
2021/06/22 04:07:42;;;;;;;10.88;7.53;;;;;;;20.16;100.00;97077.94;5032175;28;20025;-75
2021/06/22 04:10:08;;;;;;;12.52;8.05;;;;;;;20.16;100.00;97090.66;5048896;28;20025;-75
2021/06/22 04:12:34;;;;;;;16.15;8.30;;;;;;;20.14;100.00;97079.97;5032127;28;20148;-75
2021/06/22 04:14:59;;;;;;;15.50;9.48;;;;;;;20.27;100.00;97085.78;5048986;28;20063;-75
2021/06/22 04:17:25;;;;;;;17.95;10.18;;;;;;;20.34;100.00;97083.25;5032052;28;20029;-75
2021/06/22 04:19:51;;;;;;;16.20;10.57;;;;;;;20.65;100.00;97116.09;5033338;28;20041;-76
2021/06/22 04:22:16;;;;;;;19.70;9.85;;;;;;;20.71;100.00;97121.69;5031683;28;20036;-75
2021/06/22 04:24:42;;;;;;;18.42;9.43;;;;;;;20.84;100.00;97124.78;5031187;28;20022;-75
2021/06/22 04:27:08;;;;;;;20.75;11.15;;;;;;;20.85;100.00;97107.47;5047936;28;20100;-76
2021/06/22 04:29:33;;;;;;;19.52;10.07;;;;;;;20.95;100.00;97105.41;5033106;28;20032;-76
2021/06/22 04:31:59;;;;;;;20.45;10.63;;;;;;;21.13;100.00;97120.75;5031787;28;20532;-75
2021/06/22 04:34:25;;;;;;;15.88;9.23;;;;;;;21.10;100.00;97108.34;5048059;28;20030;-75
2021/06/22 04:36:54;;;;;;;15.07;10.05;;;;;;;21.25;100.00;97113.94;5031429;28;20075;-77
2021/06/22 04:39:20;;;;;;;14.68;9.07;;;;;;;21.04;100.00;97057.31;5048135;28;20517;-77
2021/06/22 04:41:45;;;;;;;14.48;8.35;;;;;;;21.41;100.00;97111.19;5048263;28;20037;-85
2021/06/22 04:44:11;;;;;;;16.00;8.35;;;;;;;21.46;100.00;97112.38;5032919;28;20409;-86
2021/06/22 04:46:37;;;;;;;12.20;8.05;;;;;;;21.51;100.00;97088.19;5032906;28;20033;-75
2021/06/22 04:49:03;;;;;;;20.02;8.27;;;;;;;21.75;100.00;97117.19;5047420;28;20390;-75
2021/06/22 04:51:29;;;;;;;22.75;8.57;;;;;;;22.18;100.00;97112.34;5030420;28;20029;-75
2021/06/22 04:53:54;;;;;;;14.25;7.93;;;;;;;22.87;99.57;97117.72;5031766;28;20025;-75
2021/06/22 04:56:24;;;;;;;12.15;6.65;;;;;;;23.51;94.53;97120.91;5030386;28;20057;-75
2021/06/22 04:58:52;;;;;;;13.07;7.00;;;;;;;24.83;85.72;97120.84;5031377;28;20021;-74
2021/06/22 05:01:17;;;;;;;8.77;6.40;;;;;;;26.16;77.21;97125.38;5030334;28;20126;-76
2021/06/22 05:03:43;;;;;;;9.50;6.05;;;;;;;27.44;69.22;97138.06;5031681;28;20116;-75
2021/06/22 05:06:09;;;;;;;11.80;6.10;;;;;;;28.49;63.76;97132.41;5030909;28;20108;-74
2021/06/22 05:08:34;;;;;;;15.70;6.68;;;;;;;29.16;61.44;97147.59;5047974;28;20523;-74
2021/06/22 05:11:00;;;;;;;10.50;5.53;;;;;;;30.23;57.59;97141.88;5032488;28;20030;-75
2021/06/22 05:13:25;;;;;;;10.13;5.65;;;;;;;30.79;54.18;97169.28;5031121;28;20032;-75
2021/06/22 05:15:51;;;;;;;11.23;5.25;;;;;;;31.38;52.58;97162.13;5047713;28;20083;-75
2021/06/22 05:18:17;;;;;;;19.50;7.28;;;;;;;32.31;50.17;97173.38;5031021;28;20138;-75
2021/06/22 05:20:42;;;;;;;12.65;5.85;;;;;;;32.13;49.07;97177.13;5047851;28;20040;-75
2021/06/22 05:23:08;;;;;;;11.27;5.70;;;;;;;32.87;47.27;97190.22;5031025;28;20087;-76
2021/06/22 05:25:33;;;;;;;10.00;5.65;;;;;;;32.80;46.42;97180.34;5031077;28;20022;-75
2021/06/22 05:27:59;;;;;;;10.30;5.60;;;;;;;33.00;46.55;97172.47;5032109;28;20017;-75
2021/06/22 05:30:24;;;;;;;9.32;5.53;;;;;;;33.68;44.97;97169.69;5031432;28;20073;-76
2021/06/22 05:32:50;;;;;;;11.20;5.80;;;;;;;34.57;43.35;97199.25;5047403;28;20053;-75
2021/06/22 05:35:16;;;;;;;12.73;6.15;;;;;;;34.53;43.62;97206.41;5047249;28;20049;-76
2021/06/22 05:37:41;;;;;;;11.82;6.28;;;;;;;35.28;41.96;97197.47;5047448;28;20126;-76
2021/06/22 05:40:08;;;;;;;7.60;5.95;;;;;;;35.57;40.79;97206.41;5031375;28;20037;-76
2021/06/22 05:42:33;;;;;;;10.20;5.93;;;;;;;36.07;39.36;97204.19;5031642;28;20025;-75
2021/06/22 05:44:59;;;;;;;12.20;5.72;;;;;;;35.61;40.02;97208.44;5032255;28;20032;-76
2021/06/22 05:47:25;;;;;;;14.60;5.50;;;;;;;35.66;40.57;97219.63;5031667;28;20037;-75
2021/06/22 05:49:51;;;;;;;8.15;5.57;;;;;;;35.56;39.71;97215.88;5047371;28;20378;-76
2021/06/22 05:52:16;;;;;;;46.90;7.07;;;;;;;35.54;40.98;97224.47;5047127;28;20029;-75
2021/06/22 05:54:42;;;;;;;9.48;5.25;;;;;;;35.42;40.80;97222.94;5030688;28;20065;-76
2021/06/22 05:57:07;;;;;;;13.38;5.82;;;;;;;35.72;39.28;97210.22;5047041;28;20036;-75
2021/06/22 05:59:33;;;;;;;20.05;5.05;;;;;;;36.65;38.22;97217.22;5046792;28;20401;-75
2021/06/22 06:01:59;;;;;;;13.45;5.70;;;;;;;37.25;37.26;97219.53;5031699;28;20112;-75
2021/06/22 06:04:27;;;;;;;12.68;5.57;;;;;;;37.11;37.68;97218.34;5030168;28;20029;-75
2021/06/22 06:06:53;;;;;;;14.27;6.07;;;;;;;37.58;36.32;97226.66;5046905;28;20025;-75
2021/06/22 06:09:19;;;;;;;15.25;5.50;;;;;;;37.64;36.10;97211.59;5046653;28;20675;-74
2021/06/22 06:11:44;;;;;;;16.60;5.80;;;;;;;37.56;36.21;97231.69;5031157;28;20113;-74
2021/06/22 06:14:10;;;;;;;9.05;4.53;;;;;;;38.16;35.13;97228.19;5046615;28;20022;-74
2021/06/22 06:16:36;;;;;;;13.70;5.30;;;;;;;38.24;34.32;97226.81;5046405;28;20109;-74
2021/06/22 06:19:01;;;;;;;7.72;5.45;;;;;;;37.70;36.08;97226.41;5046682;28;20512;-74
2021/06/22 06:21:27;;;;;;;11.07;5.75;;;;;;;37.77;36.45;97233.41;5029855;28;20032;-75
2021/06/22 06:23:56;;;;;;;14.63;5.68;;;;;;;38.51;35.39;97238.56;5046796;28;20018;-75
2021/06/22 06:26:22;;;;;;;18.45;5.38;;;;;;;39.04;34.22;97231.50;5046225;28;20549;-75
2021/06/22 06:28:51;;;;;;;6.47;5.32;;;;;;;38.87;34.68;97242.19;5031075;28;20027;-75
2021/06/22 06:31:17;;;;;;;13.82;6.38;;;;;;;39.00;34.01;97241.59;5029804;28;20026;-75
2021/06/22 06:33:43;;;;;;;22.90;6.30;;;;;;;38.90;34.20;97242.47;5046587;28;20489;-75
2021/06/22 06:36:08;;;;;;;6.80;5.40;;;;;;;38.33;34.49;97237.13;5029962;28;20021;-74
2021/06/22 06:38:34;;;;;;;13.02;6.07;;;;;;;39.38;34.05;97249.34;5046488;28;20029;-75
2021/06/22 06:40:59;;;;;;;9.20;5.55;;;;;;;39.28;33.22;97249.41;5029537;28;20136;-75
2021/06/22 06:43:25;;;;;;;11.23;5.70;;;;;;;39.56;33.74;97234.69;5046254;28;20032;-75
2021/06/22 06:45:50;;;;;;;8.25;5.22;;;;;;;39.22;33.77;97244.06;5031087;28;20033;-74
2021/06/22 06:48:16;;;;;;;5.70;4.38;;;;;;;37.76;35.63;97217.75;5031038;28;20030;-74
2021/06/22 06:50:41;;;;;;;7.68;4.35;;;;;;;38.74;34.44;97240.78;5031125;28;20025;-75
2021/06/22 06:53:07;;;;;;;8.43;5.20;;;;;;;39.65;33.38;97254.56;5046346;28;20484;-75
2021/06/22 06:55:38;;;;;;;6.97;5.10;;;;;;;39.84;32.32;97247.16;5029525;28;20037;-74
2021/06/22 06:58:04;;;;;;;;;;;;;;;40.37;31.53;97253.00;5031443;28;20026;-75
2021/06/22 07:00:32;;;;;;;12.20;4.07;;;;;;;40.56;30.84;97248.41;5046266;28;19936;-75
2021/06/22 07:02:58;;;;;;;12.23;4.45;;;;;;;41.39;29.94;97251.78;5029620;28;20029;-75
2021/06/22 07:05:24;;;;;;;20.88;5.55;;;;;;;42.04;28.96;97258.53;5046064;28;20036;-75
2021/06/22 07:07:50;;;;;;;15.90;6.20;;;;;;;42.19;28.27;97259.47;5029730;28;20489;-75
2021/06/22 07:10:17;;;;;;;7.10;4.63;;;;;;;42.50;27.42;97243.78;5046287;28;20120;-75
2021/06/22 07:12:43;;;;;;;16.88;4.97;;;;;;;42.30;28.34;97256.19;5046225;28;20484;-75
2021/06/22 07:15:09;;;;;;;9.55;5.10;;;;;;;42.70;28.41;97248.25;5031685;28;20036;-75
2021/06/22 07:17:35;;;;;;;5.03;4.53;;;;;;;40.65;30.63;97255.03;5049730;28;20120;-75
2021/06/22 07:20:03;;;;;;;22.67;4.85;;;;;;;39.09;31.98;97255.84;5033271;28;20160;-75
2021/06/22 07:22:28;;;;;;;12.35;4.18;;;;;;;39.10;33.14;97257.53;5049718;28;20119;-75
2021/06/22 07:24:54;;;;;;;14.73;6.68;;;;;;;40.82;31.51;97258.28;5034379;28;20533;-75
2021/06/22 07:27:19;;;;;;;6.30;4.55;;;;;;;39.07;33.14;97247.72;5034855;28;20090;-76
2021/06/22 07:29:45;;;;;;;8.02;5.13;;;;;;;38.96;33.70;97246.94;5034445;28;20030;-75
2021/06/22 07:32:10;;;;;;;11.43;4.25;;;;;;;39.18;33.78;97255.00;5050277;28;20111;-76
2021/06/22 07:34:36;;;;;;;19.27;5.05;;;;;;;39.46;33.65;97236.72;5049639;28;20036;-76
2021/06/22 07:37:02;;;;;;;8.40;4.22;;;;;;;39.56;32.99;97245.06;5050091;28;20010;-75
2021/06/22 07:39:28;;;;;;;6.22;4.22;;;;;;;39.47;33.13;97258.00;5033890;28;20046;-75
2021/06/22 07:41:54;;;;;;;6.53;4.35;;;;;;;39.30;32.73;97249.09;5049609;28;20060;-75
2021/06/22 07:44:20;;;;;;;6.45;4.68;;;;;;;40.37;32.76;97253.00;5049913;28;20464;-75
2021/06/22 07:46:45;;;;;;;30.40;4.63;;;;;;;40.44;31.31;97250.72;5049603;28;20037;-76
2021/06/22 07:49:12;;;;;;;12.07;4.72;;;;;;;40.93;30.39;97248.63;5049883;28;20034;-75
2021/06/22 07:51:37;;;;;;;8.65;3.97;;;;;;;40.36;30.66;97254.97;5034320;28;20030;-75
2021/06/22 07:54:03;;;;;;;6.03;3.80;;;;;;;40.51;29.49;97242.81;5032924;28;20022;-76
2021/06/22 07:56:29;;;;;;;9.30;4.10;;;;;;;40.81;30.18;97244.50;5033863;28;20112;-76
2021/06/22 07:58:54;;;;;;;5.00;3.80;;;;;;;40.17;31.32;97253.16;5033985;28;20071;-75
2021/06/22 08:01:20;;;;;;;8.38;4.20;;;;;;;40.07;31.31;97229.66;5049633;28;20025;-75
2021/06/22 08:03:46;;;;;;;8.48;5.03;;;;;;;40.51;31.58;97248.41;5034260;28;20037;-76
2021/06/22 08:06:12;;;;;;;6.75;3.92;;;;;;;41.55;28.06;97236.41;5034352;28;20397;-74
2021/06/22 08:08:38;;;;;;;6.20;3.90;;;;;;;41.92;28.86;97232.84;5032225;28;20056;-74
2021/06/22 08:11:03;;;;;;;11.27;4.15;;;;;;;41.82;29.26;97251.81;5049302;28;20056;-74
2021/06/22 08:13:29;;;;;;;6.85;3.72;;;;;;;43.00;26.74;97230.84;5032720;28;20030;-74
2021/06/22 08:15:56;;;;;;;9.35;4.00;;;;;;;42.39;27.69;97231.88;5049156;28;20147;-75
2021/06/22 08:18:22;;;;;;;7.13;3.78;;;;;;;42.70;27.63;97249.09;5033847;28;20497;-75
2021/06/22 08:20:49;;;;;;;5.90;4.32;;;;;;;42.39;29.18;97253.53;5031924;28;20033;-73
2021/06/22 08:23:15;;;;;;;7.88;4.30;;;;;;;41.34;29.88;97253.78;5048576;28;20029;-74
2021/06/22 08:25:41;;;;;;;7.00;4.43;;;;;;;41.47;28.77;97223.03;5031000;28;20040;-74
2021/06/22 08:28:07;;;;;;;14.13;5.15;;;;;;;42.49;28.34;97244.91;5031657;28;20033;-74
2021/06/22 08:30:33;;;;;;;6.25;3.47;;;;;;;41.52;28.97;97241.81;5031955;28;20036;-75
2021/06/22 08:32:59;;;;;;;10.50;4.70;;;;;;;40.27;30.66;97241.91;5033254;28;20037;-73
2021/06/22 08:35:25;;;;;;;20.05;4.80;;;;;;;40.19;30.61;97256.50;5032815;28;20026;-74
2021/06/22 08:37:52;;;;;;;5.65;3.28;;;;;;;40.90;28.23;97231.50;5048241;28;20118;-74
2021/06/22 08:40:17;;;;;;;7.50;3.33;;;;;;;41.78;27.46;97226.28;5048212;28;20055;-74
2021/06/22 08:42:43;;;;;;;13.73;4.97;;;;;;;41.76;28.18;97244.56;5048455;28;20540;-74
2021/06/22 08:45:12;;;;;;;8.93;3.42;;;;;;;42.43;26.13;97244.16;5048367;28;20481;-75
2021/06/22 08:47:38;;;;;;;10.40;3.83;;;;;;;43.05;26.84;97245.63;5031379;28;20095;-75
2021/06/22 08:50:06;;;;;;;4.60;3.42;;;;;;;43.10;25.91;97239.09;5048446;28;20048;-75
2021/06/22 08:52:34;;;;;;;5.57;3.30;;;;;;;43.20;24.88;97234.06;5047981;28;20037;-75
2021/06/22 08:55:00;;;;;;;7.05;3.60;;;;;;;42.93;25.98;97224.72;5047877;28;20433;-75
2021/06/22 08:57:26;;;;;;;6.72;3.78;;;;;;;41.87;26.80;97213.22;5048188;28;20067;-74
2021/06/22 08:59:53;;;;;;;6.60;3.35;;;;;;;42.37;26.99;97227.66;5031387;28;20102;-75
2021/06/22 09:02:28;;;;;;;12.07;3.88;;;;;;;42.67;27.46;97232.81;5048315;28;20040;-75
2021/06/22 09:04:58;;;;;;;10.25;3.83;;;;;;;42.99;26.08;97226.34;5032747;28;20061;-74
2021/06/22 09:07:42;;;;;;;5.53;3.35;;;;;;;44.06;23.94;97229.44;5031337;28;20025;-75
2021/06/22 09:10:08;;;;;;;6.95;3.78;;;;;;;43.53;25.01;97219.91;5048094;28;20436;-75
2021/06/22 09:12:34;;;;;;;6.63;3.75;;;;;;;43.65;24.38;97231.50;5047753;28;20456;-75
2021/06/22 09:15:00;;;;;;;5.82;3.63;;;;;;;43.59;23.73;97233.56;5047471;28;20030;-74
2021/06/22 09:17:35;;;;;;;6.65;3.30;;;;;;;44.03;24.00;97237.69;5032177;28;20033;-74
2021/06/22 09:20:00;;;;;;;7.45;4.03;;;;;;;44.13;25.01;97229.84;5047413;28;20512;-74
2021/06/22 09:22:27;;;;;;;7.65;3.58;;;;;;;44.39;23.88;97229.25;5032066;28;20025;-75
2021/06/22 09:25:19;;;;;;;6.10;3.78;;;;;;;43.91;24.65;97243.91;5032099;28;20036;-74
2021/06/22 09:27:50;;;;;;;10.43;4.30;;;;;;;44.21;24.94;97226.28;5044304;28;20045;-75
2021/06/22 09:30:37;;;;;;;7.97;3.72;;;;;;;43.60;26.00;97243.69;5047342;28;20028;-74
2021/06/22 09:33:29;;;;;;;7.68;3.90;;;;;;;43.32;26.43;97239.19;5031697;28;20420;-75
2021/06/22 09:35:58;;;;;;;7.43;4.40;;;;;;;42.15;27.89;97240.34;5047033;28;20028;-74
2021/06/22 09:38:27;;;;;;;7.93;4.53;;;;;;;42.37;27.48;97227.66;5046945;28;20035;-75
2021/06/22 09:41:14;;;;;;;7.28;4.53;;;;;;;41.69;28.87;97239.31;5047153;28;20041;-74
2021/06/22 09:43:43;;;;;;;10.43;4.20;;;;;;;42.52;26.76;97231.06;5047240;28;20121;-75
2021/06/22 09:46:09;;;;;;;8.82;4.05;;;;;;;42.34;27.32;97217.84;5031627;28;20037;-74
2021/06/22 09:48:45;;;;;;;11.95;4.72;;;;;;;43.01;27.23;97233.31;5047126;28;20029;-74
2021/06/22 09:51:11;;;;;;;12.73;4.80;;;;;;;43.57;27.02;97244.34;5031545;28;20064;-75
2021/06/22 09:53:37;;;;;;;8.88;4.38;;;;;;;43.35;25.31;97232.91;5047310;28;20460;-75
2021/06/22 09:56:05;;;;;;;8.98;4.57;;;;;;;43.51;25.51;97231.50;5046871;28;20404;-75
2021/06/22 09:58:42;;;;;;;5.90;3.70;;;;;;;43.33;25.64;97223.97;5046783;28;20024;-75
2021/06/22 10:01:28;;;;;;;10.43;5.20;;;;;;;42.56;27.04;97226.50;5046662;28;20025;-75
2021/06/22 10:03:58;;;;;;;5.43;4.10;;;;;;;42.23;28.73;97227.63;5046966;28;20101;-75
2021/06/22 10:06:24;;;;;;;11.97;4.30;;;;;;;43.11;26.71;97232.28;5031651;28;20029;-75
2021/06/22 10:08:54;;;;;;;62.50;6.60;;;;;;;41.41;28.93;97231.84;5046526;28;20036;-75
2021/06/22 10:11:34;;;;;;;13.65;4.53;;;;;;;41.87;29.24;97232.91;5031201;28;20119;-74
2021/06/22 10:14:02;;;;;;;9.65;4.55;;;;;;;42.28;28.79;97230.34;5030827;28;20025;-74
2021/06/22 10:16:30;;;;;;;11.00;5.43;;;;;;;43.13;26.95;97222.38;5030019;28;20026;-75
2021/06/22 10:18:56;;;;;;;8.65;4.38;;;;;;;43.66;25.90;97224.69;5046730;28;20064;-76
2021/06/22 10:21:22;;;;;;;8.88;4.47;;;;;;;43.40;25.79;97220.75;5046667;28;20043;-74
2021/06/22 10:23:49;;;;;;;7.95;4.65;;;;;;;42.23;26.96;97198.66;5030007;28;20456;-75
2021/06/22 10:26:15;;;;;;;7.32;4.30;;;;;;;42.86;25.85;97205.41;5031094;28;20036;-74
2021/06/22 10:28:43;;;;;;;10.35;4.72;;;;;;;44.37;25.89;97208.97;5031078;28;20041;-74
2021/06/22 10:31:09;;;;;;;10.00;4.72;;;;;;;44.52;24.93;97211.41;5046523;28;20040;-75
2021/06/22 10:33:34;;;;;;;9.95;4.35;;;;;;;44.33;25.83;97205.13;5046582;28;20033;-75
2021/06/22 10:36:00;;;;;;;5.50;4.45;;;;;;;44.72;25.62;97210.91;5046191;28;20053;-75
2021/06/22 10:38:26;;;;;;;15.52;4.80;;;;;;;44.37;25.74;97208.97;5046617;28;20036;-75
2021/06/22 10:40:55;;;;;;;8.23;4.18;;;;;;;45.11;24.98;97202.50;5029824;28;20107;-75
2021/06/22 10:43:33;;;;;;;11.90;4.65;;;;;;;45.21;24.68;97210.72;5046667;28;20091;-75
2021/06/22 10:46:05;;;;;;;11.73;5.40;;;;;;;44.94;26.28;97212.91;5031364;28;20033;-75
2021/06/22 10:48:41;;;;;;;7.70;4.43;;;;;;;44.88;25.53;97200.88;5045686;28;20029;-75
2021/06/22 10:51:30;;;;;;;12.48;4.55;;;;;;;44.83;25.99;97206.66;5034537;28;20503;-75
2021/06/22 10:53:56;;;;;;;8.20;4.75;;;;;;;44.70;27.64;97208.41;5033828;28;20492;-74
2021/06/22 10:56:24;;;;;;;27.45;5.95;;;;;;;44.69;25.77;97189.81;5033832;28;20111;-75
2021/06/22 10:59:12;;;;;;;12.07;4.63;;;;;;;45.00;26.33;97198.31;5034044;28;20508;-75
2021/06/22 11:01:56;;;;;;;14.85;4.28;;;;;;;46.00;24.55;97199.31;5035103;28;20078;-75
2021/06/22 11:04:23;;;;;;;10.18;4.45;;;;;;;44.39;26.64;97186.91;5042085;28;20178;-75
2021/06/22 11:07:16;;;;;;;15.02;4.80;;;;;;;44.18;26.09;97189.41;5033742;28;20123;-75
2021/06/22 11:09:42;;;;;;;12.60;5.03;;;;;;;44.64;26.00;97194.78;5034071;28;20029;-75
2021/06/22 11:12:22;;;;;;;14.48;4.60;;;;;;;43.99;26.29;97195.22;5033035;28;20389;-75
2021/06/22 11:15:01;;;;;;;9.23;4.63;;;;;;;44.26;26.17;97194.28;5034902;28;20037;-75
2021/06/22 11:17:42;;;;;;;11.38;4.80;;;;;;;45.05;25.88;97186.88;5033576;28;20512;-75
2021/06/22 11:20:17;;;;;;;14.68;4.93;;;;;;;44.55;25.60;97186.22;5034332;28;20033;-75
2021/06/22 11:23:02;;;;;;;8.95;4.78;;;;;;;43.15;27.66;97186.28;5033000;28;20034;-75
2021/06/22 11:25:49;;;;;;;17.90;4.80;;;;;;;43.40;27.04;97184.13;5049807;28;20037;-76